Time;durP1;ratioP1;P1;durP2;ratioP2;P2;SDS_P1;SDS_P2;PMS_P1;PMS_P2;Temp;Humidity;BMP_temperature;BMP_pressure;BME280_temperature;BME280_humidity;BME280_pressure;Samples;Min_cycle;Max_cycle;Signal;HPM_P1;HPM_P2
2021/12/01 00:00:41;;;;;;;1.07;0.60;;;;;;;3.45;95.29;94942.66;4841766;29;20213;-86
2021/12/01 00:03:35;;;;;;;1.60;0.70;;;;;;;3.37;95.21;94932.97;4844025;29;20229;-86
2021/12/01 00:06:39;;;;;;;0.67;0.67;;;;;;;3.40;94.56;94935.31;4824188;29;20266;-87
2021/12/01 00:09:43;;;;;;;1.60;1.17;;;;;;;3.41;94.43;94920.72;4824075;29;20211;-86
2021/12/01 00:12:16;;;;;;;1.60;1.10;;;;;;;3.40;94.66;94921.66;4810260;29;20226;-86
2021/12/01 00:18:28;;;;;;;0.60;0.60;;;;;;;3.46;94.30;94921.19;4842978;29;20620;-87
2021/12/01 00:21:22;;;;;;;0.60;0.60;;;;;;;3.46;94.26;94910.91;4828103;29;20197;-87
2021/12/01 00:23:59;;;;;;;0.30;0.30;;;;;;;3.44;94.34;94924.78;4859599;29;20216;-86
2021/12/01 00:30:26;;;;;;;0.40;0.40;;;;;;;3.53;94.22;94924.06;4862261;29;20198;-87
2021/12/01 00:33:43;;;;;;;0.30;0.30;;;;;;;3.54;93.66;94923.16;4861626;29;21005;-87
2021/12/01 00:36:56;;;;;;;;;;;;;;;;;;;;;
2021/12/01 00:40:25;;;;;;;;;;;;;;;;;;;;;
2021/12/01 00:50:11;;;;;;;0.30;0.30;;;;;;;3.54;94.71;94902.63;4904849;29;20201;-87
2021/12/01 00:53:37;;;;;;;0.73;0.40;;;;;;;3.51;95.14;94895.13;4883352;29;20234;-87
2021/12/01 00:56:52;;;;;;;;;;;;;;;;;;;;;
2021/12/01 01:03:15;;;;;;;0.20;0.20;;;;;;;3.56;95.07;94890.47;4907638;29;20206;-86
2021/12/01 01:06:01;;;;;;;0.30;0.30;;;;;;;3.50;94.74;94884.06;4870084;29;20189;-87
2021/12/01 01:09:18;;;;;;;;;;;;;;;;;;;;;
2021/12/01 01:28:19;;;;;;;0.40;0.40;;;;;;;3.53;95.01;94872.72;5019111;28;20179;-88
2021/12/01 01:31:33;;;;;;;;;;;;;;;;;;;;;
2021/12/01 01:37:25;;;;;;;;;;;;;;;;;;;;;
2021/12/01 01:40:32;;;;;;;0.20;0.20;;;;;;;3.47;95.02;94868.09;5013535;28;20627;-86
2021/12/01 01:43:59;;;;;;;0.50;0.40;;;;;;;3.48;95.42;94846.63;4997395;28;20196;-86
2021/12/01 01:46:44;;;;;;;0.50;0.50;;;;;;;3.41;94.81;94841.16;4960179;28;20181;-85
2021/12/01 01:52:42;;;;;;;0.60;0.40;;;;;;;3.35;94.81;94842.44;4963728;28;20211;-85
2021/12/01 02:02:03;;;;;;;;;;;;;;;;;;;;;
2021/12/01 02:04:48;;;;;;;0.30;0.30;;;;;;;3.46;94.04;94833.91;5055125;23;20236;-86
2021/12/01 02:07:24;;;;;;;0.30;0.30;;;;;;;3.48;93.83;94834.59;4999720;28;20198;-86
2021/12/01 02:16:57;;;;;;;0.50;0.50;;;;;;;3.44;92.78;94828.06;5002725;28;20557;-86
2021/12/01 02:19:41;;;;;;;0.73;0.40;;;;;;;3.48;92.68;94814.06;4965276;28;20200;-86
2021/12/01 02:22:21;;;;;;;0.60;0.60;;;;;;;3.46;92.75;94815.13;4993570;28;20192;-86
2021/12/01 02:34:22;;;;;;;;;;;;;;;;;;;;;
2021/12/01 02:50:43;;;;;;;1.13;0.90;;;;;;;3.36;91.75;94759.41;4956492;29;20259;-86
2021/12/01 02:53:35;;;;;;;0.93;0.77;;;;;;;3.33;91.54;94758.81;4975048;23;20711;-86
2021/12/01 02:56:17;;;;;;;0.80;0.80;;;;;;;3.39;91.32;94763.47;4974853;28;20202;-86
2021/12/01 02:59:12;;;;;;;;;;;;;;;;;;;;;
2021/12/01 03:02:02;;;;;;;1.00;0.90;;;;;;;3.42;91.55;94738.34;4995746;28;20682;-86
2021/12/01 03:05:16;;;;;;;1.00;0.90;;;;;;;3.43;91.10;94739.16;4980905;28;20220;-86
2021/12/01 03:08:02;;;;;;;2.80;0.90;;;;;;;3.38;91.29;94720.78;4953054;29;20202;-87
2021/12/01 03:10:43;;;;;;;1.13;1.00;;;;;;;3.41;91.10;94720.53;4902137;29;20209;-86
2021/12/01 03:13:15;;;;;;;1.13;1.00;;;;;;;3.38;91.30;94726.72;4901525;29;20313;-86
2021/12/01 03:19:08;;;;;;;1.10;0.90;;;;;;;3.37;90.70;94712.25;4918370;29;20184;-86
2021/12/01 03:22:02;;;;;;;0.73;0.70;;;;;;;3.48;90.25;94702.88;4900131;29;20194;-86
2021/12/01 03:24:48;;;;;;;0.80;0.80;;;;;;;3.46;90.67;94697.88;4917165;29;20241;-86
2021/12/01 03:27:31;;;;;;;0.60;0.60;;;;;;;3.44;90.15;94704.03;4900212;29;20188;-86
2021/12/01 03:41:07;;;;;;;0.90;0.60;;;;;;;3.51;89.34;94695.72;4843954;29;20201;-86
2021/12/01 03:47:26;;;;;;;0.57;0.50;;;;;;;3.60;88.93;94679.56;4925311;29;20192;-86
2021/12/01 03:50:22;;;;;;;0.60;0.60;;;;;;;3.56;89.17;94682.53;4918578;29;20222;-86
2021/12/01 03:53:04;;;;;;;1.10;0.53;;;;;;;3.56;89.05;94690.22;4881325;29;20228;-85
2021/12/01 03:56:09;;;;;;;1.20;0.57;;;;;;;3.60;88.59;94659.03;4906265;29;20183;-85
2021/12/01 03:59:19;;;;;;;1.83;0.83;;;;;;;3.62;88.48;94675.16;4904499;29;20221;-85
2021/12/01 04:09:40;;;;;;;0.93;0.63;;;;;;;3.75;88.27;94649.25;4885540;29;20294;-89
2021/12/01 04:12:48;;;;;;;1.33;0.60;;;;;;;3.73;88.42;94652.91;4898086;29;20736;-87
2021/12/01 04:16:09;;;;;;;0.60;0.60;;;;;;;3.65;88.59;94640.69;4882803;29;20730;-85
2021/12/01 04:26:23;;;;;;;;;;;;;;;;;;;;;
2021/12/01 04:29:03;;;;;;;2.47;0.63;;;;;;;3.69;88.31;94599.22;4879122;29;20196;-86
2021/12/01 04:31:43;;;;;;;0.40;0.40;;;;;;;3.70;87.95;94587.19;4863591;29;20189;-85
2021/12/01 04:34:23;;;;;;;1.30;0.70;;;;;;;3.72;87.76;94585.31;4863855;29;20314;-85
2021/12/01 04:37:04;;;;;;;0.80;0.50;;;;;;;3.70;88.14;94582.84;4878609;29;20184;-86
2021/12/01 04:39:44;;;;;;;1.80;0.60;;;;;;;3.75;88.06;94549.09;4878511;29;20200;-87
2021/12/01 04:42:24;;;;;;;1.20;0.60;;;;;;;3.77;87.23;94533.56;4878663;29;20265;-85
2021/12/01 04:48:47;;;;;;;0.70;0.50;;;;;;;3.91;86.42;94517.78;4811560;29;20287;-85
2021/12/01 04:51:18;;;;;;;1.07;0.70;;;;;;;3.92;86.09;94475.75;4824157;29;20565;-86
2021/12/01 04:54:47;;;;;;;;;;;;;;;;;;;;;
2021/12/01 04:57:54;;;;;;;0.40;0.40;;;;;;;4.06;85.51;94507.91;4899936;29;20260;-85
2021/12/01 05:04:58;;;;;;;1.90;0.70;;;;;;;4.02;85.30;94496.31;4894772;29;20770;-85
2021/12/01 05:07:52;;;;;;;0.93;0.50;;;;;;;4.04;85.19;94504.69;4898105;29;20222;-86
2021/12/01 05:13:54;;;;;;;0.50;0.50;;;;;;;4.07;85.55;94507.81;4843213;29;20235;-86
2021/12/01 05:16:57;;;;;;;1.03;0.70;;;;;;;4.13;83.91;94514.16;4799934;29;20255;-86
2021/12/01 05:23:17;;;;;;;0.47;0.40;;;;;;;4.16;83.82;94499.31;4805523;29;20216;-86
2021/12/01 05:26:12;;;;;;;0.43;0.43;;;;;;;4.15;83.96;94479.69;4805879;29;20198;-84
2021/12/01 05:28:51;;;;;;;1.27;0.60;;;;;;;4.14;83.46;94479.81;4813630;29;20660;-86
2021/12/01 05:31:42;;;;;;;0.60;0.40;;;;;;;4.11;83.63;94468.06;4825526;29;20215;-86
2021/12/01 05:34:22;;;;;;;1.00;0.50;;;;;;;4.10;83.37;94455.34;4842544;29;20226;-87
2021/12/01 05:37:08;;;;;;;0.30;0.30;;;;;;;4.18;82.96;94463.19;4826714;29;20204;-88
2021/12/01 05:40:15;;;;;;;;;;;;;;;;;;;;;
2021/12/01 05:43:07;;;;;;;;;;;;;;;;;;;;;
2021/12/01 05:45:59;;;;;;;0.40;0.40;;;;;;;4.22;83.13;94449.91;4824171;29;20209;-86
2021/12/01 05:48:51;;;;;;;0.97;0.40;;;;;;;4.13;82.45;94455.88;4861792;29;20680;-86
2021/12/01 05:51:46;;;;;;;1.37;0.50;;;;;;;4.18;81.00;94435.72;4900098;29;20304;-88
2021/12/01 05:57:45;;;;;;;0.60;0.50;;;;;;;4.24;80.98;94442.06;4826984;29;20196;-86
2021/12/01 06:00:44;;;;;;;;;;;;;;;;;;;;;
2021/12/01 06:03:39;;;;;;;0.40;0.40;;;;;;;4.16;80.88;94435.06;4857847;29;20251;-86
2021/12/01 06:06:03;;;;;;;1.23;0.30;;;;;;;4.13;80.67;94419.91;4855373;29;20257;-83
2021/12/01 06:11:39;;;;;;;1.40;0.30;;;;;;;4.15;80.71;94417.19;4884397;29;20199;-85
2021/12/01 06:14:04;;;;;;;0.67;0.50;;;;;;;4.12;81.63;94418.28;4865752;29;20310;-87
2021/12/01 06:20:00;;;;;;;0.40;0.40;;;;;;;4.17;80.04;94411.00;4843375;29;20218;-86
2021/12/01 06:22:25;;;;;;;0.37;0.37;;;;;;;4.10;80.97;94402.19;4811725;29;20288;-86
2021/12/01 06:24:50;;;;;;;0.70;0.70;;;;;;;4.12;80.89;94400.28;4843487;29;20278;-86
2021/12/01 06:27:25;;;;;;;1.90;0.50;;;;;;;4.08;80.89;94382.75;4820084;29;20227;-86
2021/12/01 06:29:52;;;;;;;1.80;0.50;;;;;;;4.08;80.50;94380.16;4843887;29;20622;-86
2021/12/01 06:32:17;;;;;;;0.60;0.60;;;;;;;4.11;79.25;94395.31;4866470;29;20214;-85
2021/12/01 06:34:43;;;;;;;1.83;0.50;;;;;;;4.10;79.37;94384.22;4900976;29;20221;-85
2021/12/01 06:37:08;;;;;;;0.47;0.40;;;;;;;4.13;79.25;94371.09;4897119;29;20323;-86
2021/12/01 06:39:45;;;;;;;0.70;0.50;;;;;;;4.08;80.36;94369.91;4867989;29;20690;-85
2021/12/01 06:42:29;;;;;;;0.40;0.40;;;;;;;4.18;78.47;94361.22;4866888;29;20886;-86
2021/12/01 06:44:58;;;;;;;1.23;0.50;;;;;;;4.12;78.83;94361.75;4886444;29;20193;-88
2021/12/01 06:47:32;;;;;;;0.83;0.60;;;;;;;4.16;78.77;94350.28;4899957;29;20623;-87
2021/12/01 06:50:15;;;;;;;0.77;0.50;;;;;;;4.17;79.62;94333.91;4938993;28;20265;-86
2021/12/01 06:52:40;;;;;;;1.80;0.70;;;;;;;4.31;79.13;94324.13;4993209;28;20211;-87
2021/12/01 06:55:12;;;;;;;0.47;0.47;;;;;;;4.40;79.19;94331.00;4993920;28;20228;-83
2021/12/01 06:58:16;;;;;;;0.50;0.50;;;;;;;4.38;79.29;94326.00;4992587;28;20247;-82
2021/12/01 07:00:43;;;;;;;0.60;0.60;;;;;;;4.37;79.45;94315.88;4987658;28;20195;-83
2021/12/01 07:23:11;;;;;;;0.40;0.40;;;;;;;4.68;80.48;94294.09;4803956;29;20275;-86
2021/12/01 08:42:30;;;;;;;0.50;0.50;;;;;;;5.89;79.53;94159.69;5111125;23;20243;-86
2021/12/01 08:48:20;;;;;;;0.37;0.33;;;;;;;5.93;79.60;94158.47;4955393;29;20248;-82
2021/12/01 08:58:04;;;;;;;0.30;0.30;;;;;;;5.91;79.71;94136.38;4873046;29;20192;-86
2021/12/01 09:00:46;;;;;;;0.97;0.90;;;;;;;5.88;79.83;94134.91;4853119;29;20202;-86
2021/12/01 09:03:23;;;;;;;0.40;0.23;;;;;;;5.85;80.07;94132.63;4850445;29;20275;-86
2021/12/01 09:05:52;;;;;;;0.40;0.40;;;;;;;5.90;79.78;94129.59;4840135;29;20208;-85
2021/12/01 09:08:21;;;;;;;0.43;0.43;;;;;;;5.89;79.91;94121.06;4860120;29;20218;-85
2021/12/01 09:10:53;;;;;;;0.67;0.40;;;;;;;5.93;79.59;94135.28;4857347;29;20202;-86
2021/12/01 09:13:20;;;;;;;0.47;0.47;;;;;;;5.84;79.69;94133.59;4879447;29;20239;-85
2021/12/01 09:15:57;;;;;;;0.30;0.30;;;;;;;5.97;79.66;94131.44;4862915;29;20202;-85
2021/12/01 09:18:27;;;;;;;0.70;0.70;;;;;;;5.89;80.01;94121.06;4841004;29;20204;-85
2021/12/01 09:20:56;;;;;;;0.67;0.40;;;;;;;5.88;80.05;94123.78;4849866;29;20204;-86
2021/12/01 09:23:21;;;;;;;0.20;0.20;;;;;;;5.84;79.68;94110.41;4858157;29;20215;-83
2021/12/01 09:26:53;;;;;;;;;;;;;;;;;;;;;
2021/12/01 09:29:19;;;;;;;0.37;0.37;;;;;;;5.93;79.19;94108.72;4918107;29;20207;-86
2021/12/01 09:31:44;;;;;;;0.40;0.40;;;;;;;5.90;79.09;94101.25;4887980;29;20246;-81
2021/12/01 09:34:10;;;;;;;0.40;0.40;;;;;;;6.01;79.22;94087.31;4998788;28;20238;-81
2021/12/01 09:36:35;;;;;;;1.10;0.30;;;;;;;6.00;78.84;94077.97;5023752;28;20183;-80
2021/12/01 09:39:00;;;;;;;0.30;0.30;;;;;;;6.34;78.63;94073.56;5000506;28;20181;-79
2021/12/01 09:41:26;;;;;;;0.40;0.40;;;;;;;6.14;78.52;94059.34;4977898;28;20200;-80
2021/12/01 09:43:52;;;;;;;0.40;0.40;;;;;;;6.30;77.88;94056.81;4994028;28;20238;-80
2021/12/01 09:46:17;;;;;;;0.40;0.40;;;;;;;6.17;78.30;94051.28;4974102;28;20184;-80
2021/12/01 09:48:44;;;;;;;0.40;0.40;;;;;;;6.25;78.55;94067.56;4995674;28;20247;-80
2021/12/01 09:51:12;;;;;;;0.33;0.33;;;;;;;6.45;78.00;94068.13;5007079;28;20211;-80
2021/12/01 09:53:37;;;;;;;0.30;0.30;;;;;;;6.41;77.62;94053.13;5014539;28;20235;-80
2021/12/01 09:56:03;;;;;;;0.30;0.30;;;;;;;6.24;77.38;94049.69;5011785;28;20196;-79
2021/12/01 09:58:31;;;;;;;0.40;0.40;;;;;;;6.38;77.66;94045.72;4983610;28;20180;-80
2021/12/01 10:00:59;;;;;;;0.37;0.30;;;;;;;6.36;77.42;94047.63;5015563;28;20183;-79
2021/12/01 10:03:25;;;;;;;1.13;0.40;;;;;;;6.34;77.72;94036.66;5008791;28;20219;-79
2021/12/01 10:06:04;;;;;;;0.63;0.23;;;;;;;6.28;77.86;94042.47;4998087;28;20187;-81
2021/12/01 10:08:34;;;;;;;0.50;0.40;;;;;;;6.37;77.70;94034.59;4998585;28;20191;-83
2021/12/01 10:11:08;;;;;;;1.07;1.07;;;;;;;6.45;77.63;94044.91;4999877;28;20184;-83
2021/12/01 10:13:37;;;;;;;0.83;0.60;;;;;;;6.50;77.38;94034.91;4987791;28;20212;-83
2021/12/01 10:16:05;;;;;;;0.60;0.60;;;;;;;6.41;77.26;94020.41;5001482;28;20264;-82
2021/12/01 10:18:36;;;;;;;0.50;0.50;;;;;;;6.32;77.50;94018.78;4998613;28;20611;-82
2021/12/01 10:21:22;;;;;;;1.50;1.33;;;;;;;6.43;77.66;94008.16;4998792;28;20230;-81
2021/12/01 10:23:57;;;;;;;0.73;0.70;;;;;;;6.43;77.30;93987.53;4997082;28;20208;-80
2021/12/01 10:26:28;;;;;;;1.20;1.10;;;;;;;6.52;78.33;94002.03;4994086;28;20260;-80
2021/12/01 10:29:20;;;;;;;0.70;0.70;;;;;;;6.56;77.98;93996.56;5001819;28;20240;-80
2021/12/01 10:31:53;;;;;;;0.70;0.70;;;;;;;6.60;78.33;93992.69;4998811;28;20218;-81
2021/12/01 10:34:31;;;;;;;0.40;0.40;;;;;;;6.64;78.50;93983.69;5002854;28;20244;-80
2021/12/01 10:37:31;;;;;;;0.97;0.67;;;;;;;6.76;78.27;93979.78;5005854;28;20241;-82
2021/12/01 10:40:08;;;;;;;0.43;0.43;;;;;;;6.36;79.46;93978.84;5016368;28;20342;-79
2021/12/01 10:42:34;;;;;;;1.20;1.10;;;;;;;6.47;80.72;93973.34;4999154;28;20241;-80
2021/12/01 10:45:05;;;;;;;0.40;0.40;;;;;;;6.36;81.00;93970.28;5002252;28;20188;-81
2021/12/01 10:47:39;;;;;;;0.53;0.37;;;;;;;6.12;83.27;93953.03;4991233;28;20199;-81
2021/12/01 10:50:05;;;;;;;0.30;0.30;;;;;;;6.19;84.08;93957.38;5003999;28;20275;-80
2021/12/01 10:52:34;;;;;;;0.97;0.70;;;;;;;6.13;84.73;93934.03;5020382;28;20260;-80
2021/12/01 10:55:08;;;;;;;0.30;0.30;;;;;;;5.95;85.70;93927.22;5002774;28;20220;-81
2021/12/01 10:57:37;;;;;;;0.60;0.57;;;;;;;5.85;86.10;93925.75;5003570;28;20188;-80
2021/12/01 11:00:11;;;;;;;0.33;0.33;;;;;;;5.84;87.01;93913.81;5011670;28;20271;-80
2021/12/01 11:02:36;;;;;;;0.30;0.30;;;;;;;5.81;87.69;93914.13;4995188;28;20212;-80
2021/12/01 11:05:01;;;;;;;0.30;0.30;;;;;;;5.98;88.05;93918.38;4996929;28;20192;-81
2021/12/01 11:07:31;;;;;;;0.50;0.40;;;;;;;5.78;89.20;93915.25;4994711;28;20188;-81
2021/12/01 11:10:10;;;;;;;0.77;0.67;;;;;;;5.90;89.69;93913.16;4995661;28;20184;-81
2021/12/01 11:12:36;;;;;;;0.57;0.40;;;;;;;5.74;89.84;93916.50;4995207;28;20714;-80
2021/12/01 11:15:25;;;;;;;0.50;0.50;;;;;;;5.76;90.75;93917.19;4994032;28;20228;-81
2021/12/01 11:17:51;;;;;;;1.13;0.40;;;;;;;5.78;90.53;93899.78;4997517;28;20196;-80
2021/12/01 11:20:40;;;;;;;0.53;0.50;;;;;;;5.77;91.18;93897.38;5001295;28;20195;-80
2021/12/01 11:23:18;;;;;;;0.90;0.40;;;;;;;5.82;90.91;93892.53;5009662;28;20200;-80
2021/12/01 11:25:46;;;;;;;1.43;0.50;;;;;;;5.86;90.91;93891.28;4999435;28;20183;-80
2021/12/01 11:28:13;;;;;;;0.50;0.40;;;;;;;5.99;91.04;93890.84;4999159;28;20251;-80
2021/12/01 11:30:41;;;;;;;1.23;1.00;;;;;;;5.72;91.53;93884.16;5003133;28;20191;-80
2021/12/01 11:33:11;;;;;;;0.50;0.50;;;;;;;5.68;91.70;93878.53;4997670;28;20255;-80
2021/12/01 11:35:37;;;;;;;0.50;0.50;;;;;;;5.78;90.74;93862.94;4999031;28;20184;-79
2021/12/01 11:38:02;;;;;;;0.40;0.40;;;;;;;5.85;91.67;93862.13;4998147;28;20237;-80
2021/12/01 11:40:30;;;;;;;0.40;0.40;;;;;;;5.88;92.17;93843.78;4994411;28;20215;-80
2021/12/01 11:42:56;;;;;;;0.43;0.43;;;;;;;5.82;92.72;93841.84;4982732;28;20290;-80
2021/12/01 11:45:22;;;;;;;0.30;0.30;;;;;;;5.81;91.43;93835.06;4995220;28;20184;-79
2021/12/01 11:47:48;;;;;;;1.07;1.00;;;;;;;5.97;91.24;93829.97;4981501;28;20199;-79
2021/12/01 11:50:19;;;;;;;0.30;0.30;;;;;;;6.01;90.69;93832.19;4997334;28;20206;-79
2021/12/01 11:53:02;;;;;;;0.40;0.40;;;;;;;6.18;90.80;93818.34;4980755;28;20290;-80
2021/12/01 11:56:04;;;;;;;0.20;0.20;;;;;;;6.05;89.63;93808.53;5013733;28;20584;-80
2021/12/01 11:59:00;;;;;;;0.50;0.50;;;;;;;6.00;89.10;93807.41;4995926;28;20636;-78
2021/12/01 12:01:26;;;;;;;0.40;0.40;;;;;;;6.08;90.29;93794.53;4986377;28;20200;-80
2021/12/01 12:03:54;;;;;;;0.90;0.60;;;;;;;6.07;90.21;93810.94;5000706;28;20208;-79
2021/12/01 12:06:31;;;;;;;0.37;0.37;;;;;;;6.23;90.49;93795.47;4999802;28;20185;-79
2021/12/01 12:09:02;;;;;;;0.50;0.50;;;;;;;6.12;89.71;93804.34;4973727;28;20239;-79
2021/12/01 12:11:38;;;;;;;0.30;0.30;;;;;;;6.02;89.16;93803.72;5003196;28;20207;-79
2021/12/01 12:14:29;;;;;;;0.67;0.40;;;;;;;5.97;88.81;93793.88;4998401;28;20676;-79
2021/12/01 12:17:05;;;;;;;0.70;0.30;;;;;;;5.92;89.26;93791.00;4983835;28;20192;-79
2021/12/01 12:19:43;;;;;;;0.40;0.40;;;;;;;5.93;88.91;93791.81;4998514;28;20191;-79
2021/12/01 12:22:08;;;;;;;0.40;0.40;;;;;;;5.84;89.91;93792.75;4998215;28;20187;-79
2021/12/01 12:24:49;;;;;;;0.57;0.40;;;;;;;5.93;89.12;93782.31;4997534;28;20677;-79
2021/12/01 12:27:44;;;;;;;0.40;0.40;;;;;;;5.93;90.39;93784.88;4985213;28;20180;-79
2021/12/01 12:30:28;;;;;;;0.33;0.33;;;;;;;5.90;89.38;93785.19;4999086;28;20180;-78
2021/12/01 12:33:16;;;;;;;0.47;0.47;;;;;;;5.95;90.00;93777.78;4993525;28;20212;-79
2021/12/01 12:35:43;;;;;;;0.30;0.30;;;;;;;5.83;91.49;93765.34;4984349;28;20569;-78
2021/12/01 12:38:08;;;;;;;0.50;0.50;;;;;;;5.77;90.95;93769.41;4979994;28;20195;-79
2021/12/01 12:40:34;;;;;;;0.57;0.40;;;;;;;5.62;91.30;93758.94;4997127;28;20616;-78
2021/12/01 12:43:10;;;;;;;0.20;0.20;;;;;;;5.60;90.63;93736.91;4981171;28;20200;-78
2021/12/01 12:45:38;;;;;;;3.00;2.27;;;;;;;5.54;91.48;93733.19;4979562;28;20186;-79
2021/12/01 12:48:23;;;;;;;0.50;0.50;;;;;;;5.58;91.79;93734.50;4985088;28;20189;-79
2021/12/01 12:51:26;;;;;;;0.30;0.23;;;;;;;5.74;91.02;93718.19;4999987;28;20335;-78
2021/12/01 12:54:10;;;;;;;1.13;0.80;;;;;;;5.58;91.54;93724.19;5016967;28;20211;-78
2021/12/01 12:56:43;;;;;;;1.10;0.90;;;;;;;5.70;89.59;93716.94;5001667;28;20271;-79
2021/12/01 12:59:21;;;;;;;1.63;1.40;;;;;;;5.78;90.68;93729.81;4997320;28;20199;-79
2021/12/01 13:01:57;;;;;;;0.93;0.60;;;;;;;5.78;89.07;93714.34;5014947;28;20179;-79
2021/12/01 13:05:02;;;;;;;0.50;0.40;;;;;;;5.81;89.61;93719.16;5000901;28;20191;-80
2021/12/01 13:07:31;;;;;;;0.50;0.50;;;;;;;6.01;89.35;93723.97;5016847;28;20226;-79
2021/12/01 13:10:22;;;;;;;0.73;0.40;;;;;;;5.90;88.94;93717.38;5000993;28;20184;-79
2021/12/01 13:12:57;;;;;;;0.47;0.47;;;;;;;5.85;88.97;93717.88;4983476;28;20220;-78
2021/12/01 13:15:23;;;;;;;0.50;0.50;;;;;;;5.85;89.25;93715.31;4986030;28;20536;-80
2021/12/01 13:17:50;;;;;;;0.90;0.40;;;;;;;5.78;88.63;93723.84;5003224;28;20223;-78
2021/12/01 13:20:20;;;;;;;0.30;0.30;;;;;;;5.81;88.43;93703.72;5002304;28;20176;-80
2021/12/01 13:23:05;;;;;;;0.30;0.30;;;;;;;5.73;89.72;93700.34;5015638;28;20257;-80
2021/12/01 13:25:32;;;;;;;0.57;0.30;;;;;;;5.71;89.74;93689.41;4996291;28;20278;-78
2021/12/01 13:28:02;;;;;;;0.60;0.50;;;;;;;5.73;90.72;93680.53;5001094;28;20188;-80
2021/12/01 13:30:28;;;;;;;0.40;0.40;;;;;;;5.52;90.63;93681.06;4995421;28;20180;-79
2021/12/01 13:33:13;;;;;;;1.07;0.50;;;;;;;5.59;90.79;93666.56;4997047;28;20206;-77
2021/12/01 13:35:40;;;;;;;0.50;0.50;;;;;;;5.52;90.49;93657.09;4998613;28;20268;-78
2021/12/01 13:38:06;;;;;;;0.40;0.40;;;;;;;5.48;90.18;93663.50;5000511;28;20187;-78
2021/12/01 13:40:33;;;;;;;0.40;0.40;;;;;;;5.42;91.36;93680.41;4991781;28;20195;-82
2021/12/01 13:42:58;;;;;;;0.30;0.30;;;;;;;5.31;91.77;93670.47;5006664;28;20196;-79
2021/12/01 13:45:26;;;;;;;1.33;0.87;;;;;;;5.35;93.20;93662.25;5000495;28;20191;-80
2021/12/01 13:47:51;;;;;;;0.50;0.50;;;;;;;5.28;92.75;93656.13;4995448;28;20565;-78
2021/12/01 13:50:17;;;;;;;0.30;0.30;;;;;;;5.24;91.71;93644.56;4998760;28;20604;-79
2021/12/01 13:52:44;;;;;;;1.00;0.40;;;;;;;5.34;93.03;93642.63;4994773;28;20203;-78
2021/12/01 13:55:18;;;;;;;0.37;0.37;;;;;;;5.31;92.71;93645.53;4996678;28;20289;-79
2021/12/01 13:57:45;;;;;;;0.50;0.50;;;;;;;5.30;92.57;93648.25;4998556;28;20277;-79
2021/12/01 14:00:11;;;;;;;0.50;0.50;;;;;;;5.35;91.46;93651.94;4999641;28;20183;-79
2021/12/01 14:02:37;;;;;;;0.73;0.50;;;;;;;5.27;92.44;93641.66;4999146;28;20859;-79
2021/12/01 14:05:03;;;;;;;0.90;0.70;;;;;;;5.36;92.18;93642.44;5000849;28;20183;-79
2021/12/01 14:07:48;;;;;;;1.70;0.90;;;;;;;5.34;92.91;93642.63;4998049;28;20666;-80
2021/12/01 14:10:41;;;;;;;0.97;0.70;;;;;;;5.31;92.70;93640.38;4994572;28;20199;-78
2021/12/01 14:13:07;;;;;;;0.50;0.50;;;;;;;5.35;93.11;93649.38;5003137;28;20640;-80
2021/12/01 14:15:37;;;;;;;0.93;0.80;;;;;;;5.37;93.26;93652.56;5020067;28;20274;-79
2021/12/01 14:18:03;;;;;;;0.57;0.57;;;;;;;5.32;93.50;93652.28;5003445;28;20188;-80
2021/12/01 14:20:29;;;;;;;0.93;0.93;;;;;;;5.32;94.10;93657.44;5000184;28;20184;-79
2021/12/01 14:22:59;;;;;;;0.40;0.40;;;;;;;5.24;93.50;93631.69;4999336;28;20215;-80
2021/12/01 14:25:26;;;;;;;1.40;1.00;;;;;;;5.37;93.19;93636.34;5001893;28;20172;-81
2021/12/01 14:28:11;;;;;;;0.90;0.60;;;;;;;5.33;93.12;93641.00;5017612;28;20564;-78
2021/12/01 14:30:38;;;;;;;1.73;1.20;;;;;;;5.38;92.73;93635.38;5012692;28;20178;-81
2021/12/01 14:33:09;;;;;;;2.60;1.53;;;;;;;5.42;92.89;93641.81;4983380;28;20195;-81
2021/12/01 14:35:34;;;;;;;1.13;0.80;;;;;;;5.37;92.51;93652.56;5001683;28;20198;-80
2021/12/01 14:38:00;;;;;;;1.43;0.83;;;;;;;5.36;92.65;93661.28;5002177;28;20254;-79
2021/12/01 14:40:25;;;;;;;0.70;0.50;;;;;;;5.33;92.32;93659.03;5004090;28;20539;-80
2021/12/01 14:42:53;;;;;;;4.73;2.40;;;;;;;5.39;92.90;93662.75;4998998;28;20234;-81
2021/12/01 14:45:21;;;;;;;0.87;0.67;;;;;;;5.34;91.96;93664.97;5000838;28;20180;-81
2021/12/01 14:48:06;;;;;;;2.30;1.67;;;;;;;5.33;92.69;93659.03;5001269;28;20274;-79
2021/12/01 14:50:33;;;;;;;4.53;1.90;;;;;;;5.34;93.09;93655.47;5003826;28;20180;-78
2021/12/01 14:53:03;;;;;;;1.97;1.10;;;;;;;5.24;94.12;93647.13;4984729;28;20216;-80
2021/12/01 14:55:32;;;;;;;0.73;0.73;;;;;;;5.21;94.19;93650.03;5016559;28;20283;-79
2021/12/01 14:57:58;;;;;;;0.83;0.83;;;;;;;5.13;93.66;93636.38;5000856;28;20192;-78
2021/12/01 15:00:26;;;;;;;0.97;0.50;;;;;;;5.09;94.41;93643.59;5001914;28;20458;-79
2021/12/01 15:02:51;;;;;;;0.60;0.60;;;;;;;5.12;94.77;93632.97;5004276;28;20268;-79
2021/12/01 15:05:21;;;;;;;0.67;0.60;;;;;;;5.09;94.76;93635.88;5005019;28;20643;-79
2021/12/01 15:07:46;;;;;;;0.80;0.60;;;;;;;5.02;95.04;93646.00;5003932;28;20258;-78
2021/12/01 15:10:23;;;;;;;2.53;1.37;;;;;;;5.04;94.61;93640.72;5006593;28;20184;-79
2021/12/01 15:12:59;;;;;;;0.90;0.80;;;;;;;5.07;93.92;93643.75;5004879;28;20210;-79
2021/12/01 15:15:33;;;;;;;0.97;0.80;;;;;;;5.05;94.20;93635.41;5003320;28;20241;-79
2021/12/01 15:18:10;;;;;;;1.87;0.80;;;;;;;5.08;93.31;93647.94;4999293;28;21629;-78
2021/12/01 15:21:03;;;;;;;2.30;1.30;;;;;;;5.13;92.73;93639.75;5001527;28;20678;-79
2021/12/01 15:24:07;;;;;;;1.93;0.83;;;;;;;5.14;92.92;93638.78;4982917;28;20271;-79
2021/12/01 15:26:46;;;;;;;3.70;2.40;;;;;;;5.12;92.90;93640.69;5007889;28;20201;-80
2021/12/01 15:29:20;;;;;;;2.13;1.10;;;;;;;5.20;91.87;93648.41;5003912;28;20671;-80
2021/12/01 15:31:50;;;;;;;1.30;0.80;;;;;;;5.18;91.65;93655.47;5003132;28;20183;-78
2021/12/01 15:34:15;;;;;;;1.40;0.60;;;;;;;5.29;90.84;93660.31;4988753;28;20295;-78
2021/12/01 15:36:43;;;;;;;0.87;0.87;;;;;;;5.27;92.18;93653.72;5002414;28;20210;-79
2021/12/01 15:39:10;;;;;;;0.87;0.87;;;;;;;5.21;91.12;93650.03;5001069;28;20246;-78
2021/12/01 15:41:35;;;;;;;1.40;1.07;;;;;;;5.16;91.65;93623.16;4999670;28;20255;-78
2021/12/01 15:44:00;;;;;;;1.17;0.90;;;;;;;5.17;91.10;93612.72;5002697;28;20236;-78
2021/12/01 15:46:26;;;;;;;0.90;0.90;;;;;;;5.16;91.02;93623.97;5001085;28;20208;-78
2021/12/01 15:48:51;;;;;;;0.90;0.80;;;;;;;5.15;90.66;93619.00;4997108;28;20266;-78
2021/12/01 15:51:16;;;;;;;1.53;1.20;;;;;;;5.09;90.11;93612.72;5002005;28;20198;-80
2021/12/01 15:53:42;;;;;;;2.37;1.77;;;;;;;5.04;90.36;93594.41;5000462;28;20223;-80
2021/12/01 15:56:07;;;;;;;1.60;1.00;;;;;;;5.01;90.17;93610.13;5020486;28;20190;-77
2021/12/01 15:58:32;;;;;;;0.87;0.80;;;;;;;4.94;90.17;93601.44;5003615;28;20199;-79
2021/12/01 16:01:00;;;;;;;1.00;0.80;;;;;;;4.96;90.01;93609.84;4987504;28;20743;-79
2021/12/01 16:03:26;;;;;;;0.80;0.70;;;;;;;4.92;89.59;93599.03;4986849;28;20192;-78
2021/12/01 16:05:52;;;;;;;3.07;1.40;;;;;;;4.91;89.63;93604.34;4987139;28;20286;-79
2021/12/01 16:08:18;;;;;;;1.03;0.90;;;;;;;4.92;89.48;93613.69;4985500;28;20260;-77
2021/12/01 16:10:44;;;;;;;1.77;1.03;;;;;;;4.87;89.56;93610.78;5000649;28;20235;-81
2021/12/01 16:13:10;;;;;;;2.17;1.30;;;;;;;4.82;90.03;93629.25;4983128;28;20616;-80
2021/12/01 16:15:37;;;;;;;1.03;0.93;;;;;;;4.84;89.45;93628.13;5002197;28;20238;-79
2021/12/01 16:18:02;;;;;;;1.27;1.17;;;;;;;4.87;88.60;93626.22;5001769;28;20180;-80
2021/12/01 16:20:28;;;;;;;1.73;1.30;;;;;;;4.90;87.82;93629.28;4984933;28;20187;-80
2021/12/01 16:22:54;;;;;;;1.30;1.03;;;;;;;5.03;86.50;93618.50;5003525;28;20823;-79
2021/12/01 16:25:21;;;;;;;1.53;1.23;;;;;;;5.01;87.04;93635.88;4988643;28;20766;-80
2021/12/01 16:27:47;;;;;;;1.90;0.70;;;;;;;5.04;87.32;93645.84;5004054;28;20179;-80
2021/12/01 16:30:24;;;;;;;2.33;1.07;;;;;;;5.00;87.70;93647.13;4987767;28;20187;-79
2021/12/01 16:32:52;;;;;;;3.60;0.67;;;;;;;5.04;87.88;93646.66;5003344;28;20630;-80
2021/12/01 16:35:20;;;;;;;1.80;1.17;;;;;;;4.99;88.93;93660.94;4987198;28;20230;-80
2021/12/01 16:37:46;;;;;;;1.80;1.33;;;;;;;4.97;89.05;93645.69;4988293;28;20202;-79
2021/12/01 16:40:12;;;;;;;2.63;1.07;;;;;;;4.91;89.61;93645.50;4987163;28;20662;-80
2021/12/01 16:42:39;;;;;;;0.70;0.67;;;;;;;4.84;89.05;93651.28;4986657;28;20595;-79
2021/12/01 16:45:05;;;;;;;2.47;1.10;;;;;;;4.85;90.10;93662.38;5003774;28;20179;-79
2021/12/01 16:47:30;;;;;;;1.97;1.40;;;;;;;4.80;90.05;93662.06;5003376;28;20188;-79
2021/12/01 16:49:56;;;;;;;2.23;1.63;;;;;;;4.76;90.73;93676.97;4987672;28;20218;-80
2021/12/01 16:52:23;;;;;;;1.70;1.13;;;;;;;4.74;91.02;93666.06;4987518;28;20214;-79